createdAt,value
2019-05-30T00:00:37.085Z,7.58
2019-05-30T00:02:43.753Z,7.55
2019-05-30T00:04:50.306Z,7.54
2019-05-30T00:06:56.991Z,7.51
2019-05-30T00:09:07.872Z,7.49
2019-05-30T00:11:14.437Z,7.45
2019-05-30T00:13:21.141Z,7.41
2019-05-30T00:15:27.713Z,7.37
2019-05-30T00:17:34.198Z,7.35
2019-05-30T00:19:40.668Z,7.34
2019-05-30T00:21:47.156Z,7.31
2019-05-30T00:23:53.540Z,7.29
2019-05-30T00:26:01.276Z,7.27
2019-05-30T00:28:08.864Z,7.25
2019-05-30T00:30:24.486Z,7.21
2019-05-30T00:32:25.343Z,7.18
2019-05-30T00:34:31.951Z,7.18
2019-05-30T00:36:38.597Z,7.14
2019-05-30T00:38:46.133Z,7.13
2019-05-30T00:40:52.670Z,7.09
2019-05-30T00:43:00.193Z,7.05
2019-05-30T00:45:19.806Z,7.02
2019-05-30T00:47:16.436Z,7.00
2019-05-30T00:49:22.919Z,6.96
2019-05-30T00:51:29.393Z,6.94
2019-05-30T00:53:35.920Z,6.91
2019-05-30T00:55:42.398Z,6.87
2019-05-30T00:57:49.989Z,6.83
2019-05-30T00:59:56.819Z,6.78
2019-05-30T01:02:03.403Z,6.73
2019-05-30T01:04:09.927Z,6.68
2019-05-30T01:06:16.478Z,6.64
2019-05-30T01:08:22.930Z,6.62
2019-05-30T01:10:29.540Z,6.58
2019-05-30T01:12:36.106Z,6.53
2019-05-30T01:14:42.855Z,6.47
2019-05-30T01:16:49.294Z,6.43
2019-05-30T01:18:56.925Z,6.37
2019-05-30T01:21:03.894Z,6.31
2019-05-30T01:23:10.382Z,6.28
2019-05-30T01:25:17.120Z,6.24
2019-05-30T01:27:23.516Z,6.22
2019-05-30T01:29:29.900Z,6.17
2019-05-30T01:31:36.458Z,6.13
2019-05-30T01:33:42.996Z,6.08
2019-05-30T01:35:49.479Z,6.03
2019-05-30T01:37:55.875Z,6.02
2019-05-30T01:40:02.353Z,5.99
2019-05-30T01:42:09.980Z,5.96
2019-05-30T01:44:16.452Z,5.94
2019-05-30T01:46:22.906Z,5.91
2019-05-30T01:48:29.366Z,5.85
2019-05-30T01:50:35.918Z,5.80
2019-05-30T01:52:42.437Z,5.78
2019-05-30T01:54:49.985Z,5.74
2019-05-30T01:56:56.384Z,5.69
2019-05-30T01:59:02.922Z,5.65
2019-05-30T02:01:22.364Z,5.60
2019-05-30T02:03:17.680Z,5.55
2019-05-30T02:05:25.267Z,5.52
2019-05-30T02:07:31.757Z,5.50
2019-05-30T02:09:38.345Z,5.46
2019-05-30T02:11:44.869Z,5.45
2019-05-30T02:13:51.277Z,5.43
2019-05-30T02:15:57.729Z,5.41
2019-05-30T02:18:05.617Z,5.38
2019-05-30T02:20:12.971Z,5.37
2019-05-30T02:22:19.414Z,5.37
2019-05-30T02:24:25.835Z,5.36
2019-05-30T02:26:32.228Z,5.36
2019-05-30T02:28:38.724Z,5.35
2019-05-30T02:30:45.101Z,5.36
2019-05-30T02:32:51.550Z,5.37
2019-05-30T02:34:58.007Z,5.35
2019-05-30T02:37:06.094Z,5.34
2019-05-30T02:39:12.942Z,5.33
2019-05-30T02:41:19.704Z,5.32
2019-05-30T02:43:26.217Z,5.32
2019-05-30T02:45:32.773Z,5.33
2019-05-30T02:47:39.178Z,5.34
2019-05-30T02:49:45.683Z,5.36
2019-05-30T02:51:52.310Z,5.38
2019-05-30T02:53:58.863Z,5.41
2019-05-30T02:56:05.998Z,5.46
2019-05-30T02:58:14.018Z,5.49
2019-05-30T03:00:25.088Z,5.53
2019-05-30T03:02:31.561Z,5.56
2019-05-30T03:04:38.005Z,5.60
2019-05-30T03:06:44.827Z,5.65
2019-05-30T03:08:51.366Z,5.70
2019-05-30T03:10:57.953Z,5.78
2019-05-30T03:13:06.299Z,5.84
2019-05-30T03:15:15.517Z,5.90
2019-05-30T03:17:22.607Z,5.96
2019-05-30T03:19:29.159Z,5.99
2019-05-30T03:21:35.687Z,6.04
2019-05-30T03:23:42.292Z,6.12
2019-05-30T03:25:48.882Z,6.14
2019-05-30T03:27:55.424Z,6.19
2019-05-30T03:30:05.102Z,6.22
2019-05-30T03:32:51.423Z,6.31
2019-05-30T03:34:27.588Z,6.35
2019-05-30T03:36:31.365Z,6.40
2019-05-30T03:38:36.489Z,6.47
2019-05-30T03:40:43.194Z,6.58
2019-05-30T03:42:49.987Z,6.62
2019-05-30T03:44:56.518Z,6.71
2019-05-30T03:47:08.631Z,6.77
2019-05-30T03:49:19.787Z,6.84
2019-05-30T03:51:28.786Z,6.96
2019-05-30T03:53:35.827Z,7.06
2019-05-30T03:55:46.818Z,7.15
2019-05-30T03:58:10.028Z,7.34
2019-05-30T04:00:42.434Z,7.59
2019-05-30T04:02:59.043Z,8.31
2019-05-30T04:05:14.197Z,9.65
2019-05-30T04:07:24.339Z,10.60
2019-05-30T04:09:34.295Z,11.61
2019-05-30T04:12:03.129Z,12.75
2019-05-30T04:14:15.680Z,13.60
2019-05-30T04:16:22.039Z,14.38
2019-05-30T04:18:28.504Z,14.50
2019-05-30T04:20:37.224Z,15.00
2019-05-30T04:22:43.627Z,15.82
2019-05-30T04:24:50.626Z,16.48
2019-05-30T04:26:57.040Z,17.01
2019-05-30T04:29:03.574Z,17.56
2019-05-30T04:31:10.143Z,18.06
2019-05-30T04:33:29.106Z,18.31
2019-05-30T04:35:24.856Z,18.46
2019-05-30T04:37:31.311Z,18.32
2019-05-30T04:39:37.784Z,18.45
2019-05-30T04:41:44.365Z,18.84
2019-05-30T04:43:50.796Z,18.52
2019-05-30T04:45:57.190Z,18.32
2019-05-30T04:48:03.728Z,18.11
2019-05-30T04:50:12.098Z,18.08
2019-05-30T04:52:23.990Z,18.30
2019-05-30T04:54:26.869Z,18.61
2019-05-30T04:56:33.271Z,19.18
2019-05-30T04:58:42.340Z,19.70
2019-05-30T05:00:48.058Z,20.44
2019-05-30T05:02:54.449Z,20.29
2019-05-30T05:05:00.865Z,20.75
2019-05-30T05:07:07.470Z,20.98
2019-05-30T05:09:14.074Z,21.15
2019-05-30T05:11:24.931Z,21.28
2019-05-30T05:13:29.379Z,21.69
2019-05-30T05:15:35.829Z,21.58
2019-05-30T05:17:42.333Z,21.08
2019-05-30T05:19:48.785Z,20.49
2019-05-30T05:21:55.200Z,20.94
2019-05-30T05:24:01.991Z,21.24
2019-05-30T05:26:08.436Z,21.42
2019-05-30T05:28:15.783Z,20.80
2019-05-30T05:30:22.799Z,21.32
2019-05-30T05:32:29.228Z,21.81
2019-05-30T05:34:35.694Z,22.59
2019-05-30T05:36:42.080Z,22.26
2019-05-30T05:38:48.576Z,21.53
2019-05-30T05:40:55.110Z,21.88
2019-05-30T05:43:01.574Z,22.43
2019-05-30T05:45:09.707Z,22.47
2019-05-30T05:47:18.488Z,22.39
2019-05-30T05:49:25.531Z,22.34
2019-05-30T05:51:31.797Z,22.96
2019-05-30T05:53:38.254Z,23.36
2019-05-30T05:55:44.754Z,23.78
2019-05-30T05:57:51.278Z,23.30
2019-05-30T05:59:57.770Z,23.19
2019-05-30T06:02:04.251Z,23.53
2019-05-30T06:04:13.546Z,24.32
2019-05-30T06:06:19.260Z,24.49
2019-05-30T06:08:25.961Z,24.72
2019-05-30T06:10:32.457Z,24.98
2019-05-30T06:12:38.947Z,24.88
2019-05-30T06:14:45.379Z,25.30
2019-05-30T06:16:53.706Z,25.56
2019-05-30T06:18:59.896Z,25.74
2019-05-30T06:21:06.677Z,26.40
2019-05-30T06:23:13.159Z,26.47
2019-05-30T06:25:24.016Z,26.72
2019-05-30T06:27:28.141Z,27.30
2019-05-30T06:29:34.611Z,26.85
2019-05-30T06:31:41.177Z,27.18
2019-05-30T06:33:47.656Z,27.31
2019-05-30T06:35:54.125Z,28.05
2019-05-30T06:38:00.519Z,27.79
2019-05-30T06:40:08.806Z,27.65
2019-05-30T06:42:15.381Z,28.39
2019-05-30T06:44:21.939Z,27.63
2019-05-30T06:46:28.455Z,27.35
2019-05-30T06:48:35.068Z,28.49
2019-05-30T06:50:41.539Z,29.62
2019-05-30T06:52:48.019Z,30.37
2019-05-30T06:54:54.502Z,31.06
2019-05-30T06:57:01.049Z,31.47
2019-05-30T06:59:07.760Z,31.61
2019-05-30T07:01:14.232Z,31.44
2019-05-30T07:03:22.034Z,31.00
2019-05-30T07:05:30.583Z,30.15
2019-05-30T07:07:37.286Z,28.66
2019-05-30T07:09:44.314Z,28.72
2019-05-30T07:11:50.856Z,28.49
2019-05-30T07:13:57.406Z,28.87
2019-05-30T07:16:03.885Z,29.43
2019-05-30T07:18:10.599Z,29.88
2019-05-30T07:20:19.131Z,31.05
2019-05-30T07:22:25.731Z,30.44
2019-05-30T07:24:32.281Z,30.37
2019-05-30T07:26:38.709Z,29.99
2019-05-30T07:28:45.142Z,30.04
2019-05-30T07:30:51.622Z,29.10
2019-05-30T07:32:58.024Z,29.15
2019-05-30T07:35:07.545Z,29.54
2019-05-30T07:37:14.283Z,30.06
2019-05-30T07:39:20.814Z,30.85
2019-05-30T07:41:27.568Z,31.26
2019-05-30T07:43:35.357Z,30.63
2019-05-30T07:45:45.610Z,30.95
2019-05-30T07:47:50.065Z,30.47
2019-05-30T07:49:56.520Z,30.67
2019-05-30T07:52:02.957Z,29.85
2019-05-30T07:54:09.554Z,29.63
2019-05-30T07:56:15.993Z,28.97
2019-05-30T07:58:22.541Z,29.24
2019-05-30T08:00:29.368Z,28.99
2019-05-30T08:02:35.969Z,29.03
2019-05-30T08:04:42.372Z,29.17
2019-05-30T08:06:48.783Z,29.15
2019-05-30T08:08:55.312Z,28.03
2019-05-30T08:11:09.511Z,26.51
2019-05-30T08:13:09.872Z,24.82
2019-05-30T08:15:16.891Z,24.00
2019-05-30T08:17:23.309Z,23.89
2019-05-30T08:19:29.770Z,23.71
2019-05-30T08:21:38.308Z,23.76
2019-05-30T08:23:44.786Z,24.88
2019-05-30T08:25:51.283Z,24.80
2019-05-30T08:27:57.704Z,24.47
2019-05-30T08:30:10.281Z,25.74
2019-05-30T08:32:16.886Z,26.94
2019-05-30T08:34:23.346Z,28.64
2019-05-30T08:36:30.863Z,28.67
2019-05-30T08:38:37.466Z,26.84
2019-05-30T08:40:44.000Z,24.93
2019-05-30T08:42:50.405Z,22.97
2019-05-30T08:44:56.861Z,21.49
2019-05-30T08:47:03.278Z,21.14
2019-05-30T08:49:09.717Z,20.74
2019-05-30T08:51:16.177Z,20.28
2019-05-30T08:53:22.648Z,19.73
2019-05-30T08:55:30.213Z,19.53
2019-05-30T08:57:36.840Z,19.38
2019-05-30T08:59:44.844Z,19.20
2019-05-30T09:01:53.299Z,19.17
2019-05-30T09:04:00.086Z,19.37
2019-05-30T09:06:06.620Z,19.15
2019-05-30T09:08:13.316Z,19.23
2019-05-30T09:10:19.933Z,19.35
2019-05-30T09:12:26.504Z,19.37
2019-05-30T09:14:33.105Z,19.42
2019-05-30T09:16:39.742Z,19.26
2019-05-30T09:18:47.454Z,19.04
2019-05-30T09:20:54.085Z,19.01
2019-05-30T09:23:00.473Z,18.94
2019-05-30T09:25:13.187Z,19.07
2019-05-30T09:27:19.712Z,19.00
2019-05-30T09:29:26.366Z,19.13
2019-05-30T09:31:32.920Z,19.26
2019-05-30T09:33:40.840Z,19.46
2019-05-30T09:35:47.506Z,19.45
2019-05-30T09:37:54.286Z,19.46
2019-05-30T09:40:00.940Z,19.30
2019-05-30T09:42:08.603Z,19.22
2019-05-30T09:44:15.096Z,19.34
2019-05-30T09:46:23.299Z,19.04
2019-05-30T09:48:30.411Z,18.89
2019-05-30T09:50:36.961Z,18.75
2019-05-30T09:52:44.021Z,18.79
2019-05-30T09:54:52.600Z,18.72
2019-05-30T09:56:59.148Z,18.74
2019-05-30T09:59:05.853Z,18.58
2019-05-30T10:01:12.517Z,18.71
2019-05-30T10:03:19.154Z,18.63
2019-05-30T10:05:26.559Z,18.45
2019-05-30T10:07:33.177Z,18.32
2019-05-30T10:09:39.656Z,18.25
2019-05-30T10:11:47.202Z,18.20
2019-05-30T10:13:53.989Z,18.23
2019-05-30T10:16:00.455Z,18.27
2019-05-30T10:18:07.064Z,18.47
2019-05-30T10:20:14.572Z,18.42
2019-05-30T10:22:21.018Z,18.58
2019-05-30T10:24:28.328Z,18.62
2019-05-30T10:26:34.828Z,18.64
2019-05-30T10:28:41.357Z,18.53
2019-05-30T10:30:53.414Z,18.56
2019-05-30T10:32:56.140Z,18.49
2019-05-30T10:35:02.796Z,18.64
2019-05-30T10:37:09.341Z,18.76
2019-05-30T10:39:15.807Z,18.76
2019-05-30T10:41:22.277Z,18.84
2019-05-30T10:43:29.684Z,18.79
2019-05-30T10:45:38.636Z,18.79
2019-05-30T10:47:45.791Z,18.70
2019-05-30T10:49:53.536Z,18.76
2019-05-30T10:52:00.274Z,18.99
2019-05-30T10:54:06.824Z,18.99
2019-05-30T10:56:13.308Z,18.97
2019-05-30T10:58:19.953Z,19.09
2019-05-30T11:00:47.266Z,19.14
2019-05-30T11:02:55.000Z,19.04
2019-05-30T11:05:01.685Z,19.05
2019-05-30T11:07:33.869Z,19.20
2019-05-30T11:09:48.703Z,19.28
2019-05-30T11:11:55.351Z,19.09
2019-05-30T11:14:01.942Z,19.00
2019-05-30T11:16:08.561Z,19.13
2019-05-30T11:18:15.247Z,19.25
2019-05-30T11:20:22.678Z,19.41
2019-05-30T11:22:29.360Z,19.40
2019-05-30T11:24:36.030Z,19.40
2019-05-30T11:26:42.571Z,19.40
2019-05-30T11:28:50.443Z,19.61
2019-05-30T11:30:57.158Z,19.76
2019-05-30T11:33:03.699Z,19.71
2019-05-30T11:35:10.537Z,19.51
2019-05-30T11:37:18.754Z,19.56
2019-05-30T11:39:25.160Z,19.73
2019-05-30T11:41:31.596Z,19.94
2019-05-30T11:43:37.995Z,20.14
2019-05-30T11:45:44.564Z,20.13
2019-05-30T11:47:51.748Z,20.09
2019-05-30T11:50:00.357Z,20.10
2019-05-30T11:52:08.266Z,20.14
2019-05-30T11:54:14.677Z,20.18
2019-05-30T11:56:21.164Z,20.22
2019-05-30T11:58:27.637Z,20.28
2019-05-30T12:00:34.438Z,20.25
2019-05-30T12:02:40.839Z,20.13
2019-05-30T12:04:47.353Z,20.24
2019-05-30T12:06:54.677Z,20.18
2019-05-30T12:09:01.349Z,20.18
2019-05-30T12:11:09.741Z,20.09
2019-05-30T12:13:16.140Z,19.86
2019-05-30T12:15:24.254Z,19.90
2019-05-30T12:17:30.779Z,20.11
2019-05-30T12:19:38.392Z,20.11
2019-05-30T12:21:44.876Z,20.10
2019-05-30T12:23:54.280Z,20.04
2019-05-30T12:26:00.710Z,19.98
2019-05-30T12:28:07.872Z,20.05
2019-05-30T12:30:15.767Z,20.04
2019-05-30T12:32:22.156Z,20.22
2019-05-30T12:34:28.545Z,20.10
2019-05-30T12:36:35.087Z,20.00
2019-05-30T12:38:41.547Z,20.18
2019-05-30T12:40:48.022Z,20.32
2019-05-30T12:42:57.645Z,20.31
2019-05-30T12:45:07.038Z,20.09
2019-05-30T12:47:12.153Z,20.01
2019-05-30T12:49:18.627Z,20.06
2019-05-30T12:51:25.161Z,20.03
2019-05-30T12:53:31.575Z,20.01
2019-05-30T12:55:38.174Z,20.07
2019-05-30T12:57:44.770Z,20.06
2019-05-30T12:59:51.310Z,20.17
2019-05-30T13:01:58.958Z,20.27
2019-05-30T13:04:07.360Z,20.44
2019-05-30T13:06:14.082Z,20.57
2019-05-30T13:08:21.961Z,20.56
2019-05-30T13:10:28.962Z,20.74
2019-05-30T13:12:35.625Z,20.76
2019-05-30T13:14:42.090Z,20.69
2019-05-30T13:16:48.681Z,20.77
2019-05-30T13:18:55.910Z,20.71
2019-05-30T13:21:02.573Z,20.64
2019-05-30T13:23:09.205Z,20.67
2019-05-30T13:25:18.251Z,20.48
2019-05-30T13:27:24.864Z,20.26
2019-05-30T13:29:31.334Z,20.15
2019-05-30T13:31:37.836Z,20.37
2019-05-30T13:33:44.324Z,20.49
2019-05-30T13:35:50.807Z,20.66
2019-05-30T13:37:57.567Z,20.52
2019-05-30T13:40:23.608Z,20.62
2019-05-30T13:42:16.770Z,20.70
2019-05-30T13:44:23.237Z,20.73
2019-05-30T13:46:29.734Z,20.57
2019-05-30T13:48:36.190Z,20.49
2019-05-30T13:50:43.481Z,20.53
2019-05-30T13:52:50.090Z,20.52
2019-05-30T13:54:56.556Z,20.61
2019-05-30T13:57:05.808Z,20.70
2019-05-30T13:59:12.606Z,20.89
2019-05-30T14:01:19.223Z,21.20
2019-05-30T14:03:25.758Z,21.40
2019-05-30T14:05:32.365Z,21.43
2019-05-30T14:07:38.977Z,21.62
2019-05-30T14:09:45.468Z,21.60
2019-05-30T14:11:51.878Z,21.68
2019-05-30T14:13:58.407Z,21.91
2019-05-30T14:16:04.948Z,21.98
2019-05-30T14:18:11.432Z,21.99
2019-05-30T14:20:19.345Z,21.95
2019-05-30T14:22:25.931Z,21.92
2019-05-30T14:24:32.476Z,22.03
2019-05-30T14:26:39.012Z,22.00
2019-05-30T14:28:45.592Z,21.90
2019-05-30T14:30:52.095Z,22.00
2019-05-30T14:32:58.725Z,22.15
2019-05-30T14:35:08.465Z,22.11
2019-05-30T14:37:15.112Z,22.17
2019-05-30T14:39:21.796Z,22.19
2019-05-30T14:41:28.230Z,22.24
2019-05-30T14:43:34.680Z,22.23
2019-05-30T14:45:41.223Z,22.19
2019-05-30T14:47:48.602Z,22.20
2019-05-30T14:49:54.994Z,22.15
2019-05-30T14:52:02.698Z,22.12
2019-05-30T14:54:09.143Z,22.17
2019-05-30T14:56:15.610Z,22.04
2019-05-30T14:58:22.080Z,21.94
2019-05-30T15:00:28.620Z,21.75
2019-05-30T15:02:35.093Z,21.66
2019-05-30T15:04:41.591Z,21.73
2019-05-30T15:06:48.048Z,21.68
2019-05-30T15:08:54.695Z,21.78
2019-05-30T15:11:01.200Z,21.86
2019-05-30T15:13:07.617Z,21.89
2019-05-30T15:15:18.457Z,21.76
2019-05-30T15:17:24.666Z,21.72
2019-05-30T15:19:32.660Z,21.78
2019-05-30T15:21:39.152Z,21.52
2019-05-30T15:23:45.608Z,21.43
2019-05-30T15:25:52.251Z,21.51
2019-05-30T15:27:58.651Z,21.45
2019-05-30T15:30:08.405Z,21.39
2019-05-30T15:32:15.089Z,21.47
2019-05-30T15:34:21.616Z,21.41
2019-05-30T15:36:28.162Z,21.30
2019-05-30T15:38:34.636Z,21.19
2019-05-30T15:40:41.133Z,21.10
2019-05-30T15:42:47.744Z,21.14
2019-05-30T15:44:54.206Z,21.17
2019-05-30T15:47:00.631Z,21.18
2019-05-30T15:49:08.083Z,21.21
2019-05-30T15:51:14.876Z,21.25
2019-05-30T15:53:21.490Z,21.02
2019-05-30T15:55:28.009Z,20.93
2019-05-30T15:57:34.426Z,20.76
2019-05-30T15:59:40.822Z,20.69
2019-05-30T16:01:47.266Z,20.69
2019-05-30T16:03:53.803Z,20.75
2019-05-30T16:06:00.272Z,20.80
2019-05-30T16:08:06.868Z,20.77
2019-05-30T16:10:14.873Z,20.72
2019-05-30T16:12:21.511Z,20.59
2019-05-30T16:14:29.303Z,20.56
2019-05-30T16:16:40.203Z,20.51
2019-05-30T16:18:43.800Z,20.47
2019-05-30T16:20:50.293Z,20.48
2019-05-30T16:22:56.893Z,20.41
2019-05-30T16:25:04.351Z,20.25
2019-05-30T16:27:10.921Z,20.17
2019-05-30T16:29:17.694Z,20.19
2019-05-30T16:31:24.393Z,20.19
2019-05-30T16:33:30.811Z,20.23
2019-05-30T16:35:37.486Z,20.26
2019-05-30T16:37:43.937Z,20.29
2019-05-30T16:40:04.527Z,20.31
2019-05-30T16:41:58.512Z,20.28
2019-05-30T16:44:05.054Z,20.29
2019-05-30T16:46:11.594Z,20.25
2019-05-30T16:48:18.386Z,20.20
2019-05-30T16:50:27.051Z,20.14
2019-05-30T16:52:33.590Z,20.00
2019-05-30T16:54:40.140Z,19.93
2019-05-30T16:56:46.844Z,19.87
2019-05-30T16:58:54.957Z,19.93
2019-05-30T17:01:01.453Z,19.94
2019-05-30T17:03:08.091Z,19.95
2019-05-30T17:05:15.832Z,19.88
2019-05-30T17:07:23.416Z,19.67
2019-05-30T17:09:29.928Z,19.51
2019-05-30T17:11:36.599Z,19.51
2019-05-30T17:13:43.072Z,19.48
2019-05-30T17:15:49.536Z,19.46
2019-05-30T17:17:56.022Z,19.43
2019-05-30T17:20:02.499Z,19.31
2019-05-30T17:22:09.000Z,19.19
2019-05-30T17:24:16.871Z,19.07
2019-05-30T17:26:27.408Z,18.93
2019-05-30T17:28:33.292Z,18.75
2019-05-30T17:30:39.760Z,18.55
2019-05-30T17:32:46.224Z,18.40
2019-05-30T17:34:52.729Z,18.27
2019-05-30T17:36:59.189Z,18.14
2019-05-30T17:39:09.110Z,18.05
2019-05-30T17:41:15.567Z,17.94
2019-05-30T17:43:22.938Z,17.82
2019-05-30T17:45:30.670Z,17.70
2019-05-30T17:47:37.145Z,17.63
2019-05-30T17:49:43.603Z,17.54
2019-05-30T17:51:50.114Z,17.45
2019-05-30T17:53:56.497Z,17.37
2019-05-30T17:56:02.964Z,17.29
2019-05-30T17:58:10.419Z,17.22
2019-05-30T18:00:18.000Z,17.14
2019-05-30T18:02:24.486Z,17.08
2019-05-30T18:04:31.133Z,17.01
2019-05-30T18:06:37.593Z,16.96
2019-05-30T18:08:43.990Z,16.90
2019-05-30T18:10:53.686Z,16.86
2019-05-30T18:12:58.638Z,16.80
2019-05-30T18:15:09.449Z,16.77
2019-05-30T18:17:15.925Z,16.75
2019-05-30T18:19:25.185Z,16.69
2019-05-30T18:21:31.907Z,16.66
2019-05-30T18:23:38.334Z,16.61
2019-05-30T18:25:44.837Z,16.56
2019-05-30T18:27:51.241Z,16.52
2019-05-30T18:29:57.705Z,16.48
2019-05-30T18:32:04.175Z,16.43
2019-05-30T18:34:10.944Z,16.39
2019-05-30T18:36:18.451Z,16.33
2019-05-30T18:38:26.376Z,16.27
2019-05-30T18:40:37.243Z,16.21
2019-05-30T18:42:43.759Z,16.16
2019-05-30T18:44:50.324Z,16.11
2019-05-30T18:46:56.902Z,16.06
2019-05-30T18:49:03.482Z,15.99
2019-05-30T18:51:09.943Z,15.93
2019-05-30T18:53:16.392Z,15.89
2019-05-30T18:55:22.865Z,15.82
2019-05-30T18:57:29.299Z,15.71
2019-05-30T18:59:37.287Z,15.60
2019-05-30T19:01:44.224Z,15.51
2019-05-30T19:03:51.622Z,15.43
2019-05-30T19:05:58.095Z,15.31
2019-05-30T19:08:06.089Z,15.23
2019-05-30T19:10:13.689Z,15.17
2019-05-30T19:12:20.118Z,15.10
2019-05-30T19:14:29.735Z,15.03
2019-05-30T19:16:34.749Z,14.95
2019-05-30T19:18:41.385Z,14.92
2019-05-30T19:20:47.980Z,14.87
2019-05-30T19:22:54.429Z,14.84
2019-05-30T19:25:00.916Z,14.81
2019-05-30T19:27:07.459Z,14.77
2019-05-30T19:29:14.114Z,14.72
2019-05-30T19:31:20.850Z,14.71
2019-05-30T19:33:28.730Z,14.68
2019-05-30T19:35:35.479Z,14.68
2019-05-30T19:37:42.035Z,14.68
2019-05-30T19:39:48.513Z,14.67
2019-05-30T19:41:57.407Z,14.64
2019-05-30T19:44:03.248Z,14.58
2019-05-30T19:46:13.195Z,14.56
2019-05-30T19:48:18.886Z,14.52
2019-05-30T19:50:25.427Z,14.49
2019-05-30T19:52:32.624Z,14.48
2019-05-30T19:54:40.212Z,14.43
2019-05-30T19:56:46.686Z,14.40
2019-05-30T19:58:54.067Z,14.36
2019-05-30T20:01:00.513Z,14.30
2019-05-30T20:03:07.180Z,14.26
2019-05-30T20:05:14.012Z,14.24
2019-05-30T20:07:20.547Z,14.20
2019-05-30T20:09:27.099Z,14.16
2019-05-30T20:11:33.568Z,14.11
2019-05-30T20:13:41.298Z,14.09
2019-05-30T20:15:48.035Z,14.07
2019-05-30T20:17:54.489Z,14.07
2019-05-30T20:20:00.971Z,14.03
2019-05-30T20:22:08.770Z,14.01
2019-05-30T20:24:15.332Z,13.97
2019-05-30T20:26:21.856Z,13.94
2019-05-30T20:28:28.327Z,13.91
2019-05-30T20:30:34.972Z,13.87
2019-05-30T20:32:41.906Z,13.86
2019-05-30T20:34:49.727Z,13.85
2019-05-30T20:36:56.628Z,13.82
2019-05-30T20:39:03.551Z,13.78
2019-05-30T20:41:10.105Z,13.76
2019-05-30T20:43:17.484Z,13.73
2019-05-30T20:45:24.801Z,13.69
2019-05-30T20:47:31.377Z,13.65
2019-05-30T20:49:39.081Z,13.61
2019-05-30T20:51:45.643Z,13.57
2019-05-30T20:53:54.749Z,13.51
2019-05-30T20:56:00.637Z,13.47
2019-05-30T20:58:07.119Z,13.44
2019-05-30T21:00:18.159Z,13.41
2019-05-30T21:02:28.980Z,13.36
2019-05-30T21:04:34.652Z,13.31
2019-05-30T21:06:43.023Z,13.27
2019-05-30T21:08:51.736Z,13.23
2019-05-30T21:11:03.213Z,13.18
2019-05-30T21:13:11.230Z,13.12
2019-05-30T21:15:18.178Z,13.09
2019-05-30T21:17:26.864Z,13.06
2019-05-30T21:19:33.437Z,12.98
2019-05-30T21:21:40.229Z,12.86
2019-05-30T21:23:46.917Z,12.71
2019-05-30T21:25:54.852Z,12.60
2019-05-30T21:28:01.307Z,12.52
2019-05-30T21:30:10.486Z,12.45
2019-05-30T21:32:18.065Z,12.39
2019-05-30T21:34:24.592Z,12.34
2019-05-30T21:36:31.070Z,12.32
2019-05-30T21:38:37.864Z,12.31
2019-05-30T21:40:44.613Z,12.31
2019-05-30T21:43:04.651Z,12.29
2019-05-30T21:44:59.361Z,12.30
2019-05-30T21:47:10.221Z,12.32
2019-05-30T21:49:16.770Z,12.33
2019-05-30T21:51:23.314Z,12.35
2019-05-30T21:53:31.026Z,12.33
2019-05-30T21:55:37.512Z,12.35
2019-05-30T21:57:44.080Z,12.38
2019-05-30T21:59:50.841Z,12.42
2019-05-30T22:01:57.811Z,12.47
2019-05-30T22:04:05.400Z,12.50
2019-05-30T22:06:11.971Z,12.51
2019-05-30T22:08:18.515Z,12.55
2019-05-30T22:10:26.319Z,12.57
2019-05-30T22:12:32.895Z,12.58
2019-05-30T22:14:39.354Z,12.57
2019-05-30T22:16:46.035Z,12.56
2019-05-30T22:18:52.664Z,12.55
2019-05-30T22:21:01.064Z,12.53
2019-05-30T22:23:10.779Z,12.52
2019-05-30T22:25:16.027Z,12.50
2019-05-30T22:27:22.555Z,12.47
2019-05-30T22:29:29.052Z,12.45
2019-05-30T22:31:35.793Z,12.41
2019-05-30T22:33:42.667Z,12.37
2019-05-30T22:35:49.351Z,12.33
2019-05-30T22:37:55.765Z,12.30
2019-05-30T22:40:02.346Z,12.25
2019-05-30T22:42:08.927Z,12.23
2019-05-30T22:44:15.343Z,12.20
2019-05-30T22:46:21.887Z,12.17
2019-05-30T22:48:28.497Z,12.15
2019-05-30T22:50:36.112Z,12.13
2019-05-30T22:52:42.713Z,12.14
2019-05-30T22:54:49.208Z,12.14
2019-05-30T22:56:57.015Z,12.14
2019-05-30T22:59:03.726Z,12.16
2019-05-30T23:01:10.157Z,12.19
2019-05-30T23:03:16.661Z,12.23
2019-05-30T23:05:24.313Z,12.27
2019-05-30T23:07:30.801Z,12.29
2019-05-30T23:09:37.348Z,12.33
2019-05-30T23:11:43.954Z,12.35
2019-05-30T23:13:50.531Z,12.40
2019-05-30T23:15:56.998Z,12.44
2019-05-30T23:18:03.533Z,12.46
2019-05-30T23:20:10.776Z,12.51
2019-05-30T23:22:17.314Z,12.55
2019-05-30T23:24:23.878Z,12.57
2019-05-30T23:26:30.556Z,12.58
2019-05-30T23:28:37.117Z,12.60
2019-05-30T23:30:43.695Z,12.62
2019-05-30T23:32:50.520Z,12.62
2019-05-30T23:34:58.674Z,12.60
2019-05-30T23:37:05.371Z,12.57
2019-05-30T23:39:11.807Z,12.52
2019-05-30T23:41:18.280Z,12.51
2019-05-30T23:43:24.706Z,12.50
2019-05-30T23:45:31.255Z,12.48
2019-05-30T23:47:37.805Z,12.47
2019-05-30T23:49:44.208Z,12.48
2019-05-30T23:51:51.863Z,12.48
2019-05-30T23:53:58.688Z,12.47
2019-05-30T23:56:05.239Z,12.48
2019-05-30T23:58:11.710Z,12.47
